sensor_id;sensor_type;location;lat;lon;timestamp;temperature;humidity
12370;DHT22;6249;52.128;9.986;2023-03-05T00:00:22;3.70;99.90
12370;DHT22;6249;52.128;9.986;2023-03-05T00:03:43;3.60;99.90
12370;DHT22;6249;52.128;9.986;2023-03-05T00:07:06;3.60;99.90
12370;DHT22;6249;52.128;9.986;2023-03-05T00:10:31;3.50;99.90
12370;DHT22;6249;52.128;9.986;2023-03-05T00:13:52;3.60;99.90
12370;DHT22;6249;52.128;9.986;2023-03-05T00:17:12;3.60;99.90
12370;DHT22;6249;52.128;9.986;2023-03-05T00:20:34;3.50;99.90
12370;DHT22;6249;52.128;9.986;2023-03-05T00:23:58;3.50;99.90
12370;DHT22;6249;52.128;9.986;2023-03-05T00:27:24;3.50;99.90
12370;DHT22;6249;52.128;9.986;2023-03-05T00:30:45;3.50;99.90
12370;DHT22;6249;52.128;9.986;2023-03-05T00:34:08;3.60;99.90
12370;DHT22;6249;52.128;9.986;2023-03-05T00:37:29;3.50;99.90
12370;DHT22;6249;52.128;9.986;2023-03-05T00:40:50;3.50;99.90
12370;DHT22;6249;52.128;9.986;2023-03-05T00:44:10;3.60;99.90
12370;DHT22;6249;52.128;9.986;2023-03-05T00:47:31;3.60;99.90
12370;DHT22;6249;52.128;9.986;2023-03-05T00:51:02;3.60;99.90
12370;DHT22;6249;52.128;9.986;2023-03-05T00:54:25;3.60;99.90
12370;DHT22;6249;52.128;9.986;2023-03-05T00:57:46;3.50;99.90
12370;DHT22;6249;52.128;9.986;2023-03-05T01:01:07;3.50;99.90
12370;DHT22;6249;52.128;9.986;2023-03-05T01:04:27;3.40;99.90
12370;DHT22;6249;52.128;9.986;2023-03-05T01:07:51;3.50;99.90
12370;DHT22;6249;52.128;9.986;2023-03-05T01:11:17;3.60;99.90
12370;DHT22;6249;52.128;9.986;2023-03-05T01:14:42;3.50;99.90
12370;DHT22;6249;52.128;9.986;2023-03-05T01:18:05;3.60;99.90
12370;DHT22;6249;52.128;9.986;2023-03-05T01:21:26;3.50;99.90
12370;DHT22;6249;52.128;9.986;2023-03-05T01:24:49;3.60;99.90
12370;DHT22;6249;52.128;9.986;2023-03-05T01:28:10;3.40;99.90
12370;DHT22;6249;52.128;9.986;2023-03-05T01:31:33;3.30;99.90
12370;DHT22;6249;52.128;9.986;2023-03-05T01:34:56;3.50;99.90
12370;DHT22;6249;52.128;9.986;2023-03-05T01:38:17;3.30;99.90
12370;DHT22;6249;52.128;9.986;2023-03-05T01:41:37;3.40;99.90
12370;DHT22;6249;52.128;9.986;2023-03-05T01:48:29;3.40;99.90
12370;DHT22;6249;52.128;9.986;2023-03-05T01:52:12;3.40;99.90
12370;DHT22;6249;52.128;9.986;2023-03-05T01:55:37;3.50;99.90
12370;DHT22;6249;52.128;9.986;2023-03-05T01:58:59;3.40;99.90
12370;DHT22;6249;52.128;9.986;2023-03-05T02:02:24;3.40;99.90
12370;DHT22;6249;52.128;9.986;2023-03-05T02:05:47;3.40;99.90
12370;DHT22;6249;52.128;9.986;2023-03-05T02:09:08;3.30;99.90
12370;DHT22;6249;52.128;9.986;2023-03-05T02:12:31;3.30;99.90
12370;DHT22;6249;52.128;9.986;2023-03-05T02:15:57;3.40;99.90
12370;DHT22;6249;52.128;9.986;2023-03-05T02:19:18;3.40;99.90
12370;DHT22;6249;52.128;9.986;2023-03-05T02:22:39;3.40;99.90
12370;DHT22;6249;52.128;9.986;2023-03-05T02:25:59;3.50;99.90
12370;DHT22;6249;52.128;9.986;2023-03-05T02:29:22;3.40;99.90
12370;DHT22;6249;52.128;9.986;2023-03-05T02:32:43;3.40;99.90
12370;DHT22;6249;52.128;9.986;2023-03-05T02:36:07;4.10;99.90
12370;DHT22;6249;52.128;9.986;2023-03-05T02:39:28;3.50;99.90
12370;DHT22;6249;52.128;9.986;2023-03-05T02:42:49;3.40;99.90
12370;DHT22;6249;52.128;9.986;2023-03-05T02:46:12;3.40;99.90
12370;DHT22;6249;52.128;9.986;2023-03-05T02:49:35;3.50;99.90
12370;DHT22;6249;52.128;9.986;2023-03-05T02:52:56;3.50;99.90
12370;DHT22;6249;52.128;9.986;2023-03-05T02:56:21;3.40;99.90
12370;DHT22;6249;52.128;9.986;2023-03-05T02:59:44;3.30;99.90
12370;DHT22;6249;52.128;9.986;2023-03-05T03:03:08;3.40;99.90
12370;DHT22;6249;52.128;9.986;2023-03-05T03:06:29;3.50;99.90
12370;DHT22;6249;52.128;9.986;2023-03-05T03:09:49;3.50;99.90
12370;DHT22;6249;52.128;9.986;2023-03-05T03:13:12;3.60;99.90
12370;DHT22;6249;52.128;9.986;2023-03-05T03:16:33;3.50;99.90
12370;DHT22;6249;52.128;9.986;2023-03-05T03:19:53;3.50;99.90
12370;DHT22;6249;52.128;9.986;2023-03-05T03:23:19;3.50;99.90
12370;DHT22;6249;52.128;9.986;2023-03-05T03:26:39;3.40;99.90
12370;DHT22;6249;52.128;9.986;2023-03-05T03:30:03;3.50;99.90
12370;DHT22;6249;52.128;9.986;2023-03-05T03:33:26;3.40;99.90
12370;DHT22;6249;52.128;9.986;2023-03-05T03:36:48;3.40;99.90
12370;DHT22;6249;52.128;9.986;2023-03-05T03:40:13;3.50;99.90
12370;DHT22;6249;52.128;9.986;2023-03-05T03:43:36;3.50;99.90
12370;DHT22;6249;52.128;9.986;2023-03-05T03:46:56;3.50;99.90
12370;DHT22;6249;52.128;9.986;2023-03-05T03:50:20;3.50;99.90
12370;DHT22;6249;52.128;9.986;2023-03-05T03:53:40;3.40;99.90
12370;DHT22;6249;52.128;9.986;2023-03-05T03:57:03;3.30;99.90
12370;DHT22;6249;52.128;9.986;2023-03-05T04:00:24;3.20;99.90
12370;DHT22;6249;52.128;9.986;2023-03-05T04:03:45;3.20;99.90
12370;DHT22;6249;52.128;9.986;2023-03-05T04:07:08;3.10;99.90
12370;DHT22;6249;52.128;9.986;2023-03-05T04:10:33;3.10;99.90
12370;DHT22;6249;52.128;9.986;2023-03-05T04:13:54;3.20;99.90
12370;DHT22;6249;52.128;9.986;2023-03-05T04:17:15;3.10;99.90
12370;DHT22;6249;52.128;9.986;2023-03-05T04:20:36;3.20;99.90
12370;DHT22;6249;52.128;9.986;2023-03-05T04:23:56;3.20;99.90
12370;DHT22;6249;52.128;9.986;2023-03-05T04:27:17;3.30;99.90
12370;DHT22;6249;52.128;9.986;2023-03-05T04:30:40;3.20;99.90
12370;DHT22;6249;52.128;9.986;2023-03-05T04:34:03;3.20;99.90
12370;DHT22;6249;52.128;9.986;2023-03-05T04:37:29;3.20;99.90
12370;DHT22;6249;52.128;9.986;2023-03-05T04:40:49;3.30;99.90
12370;DHT22;6249;52.128;9.986;2023-03-05T04:44:12;3.30;99.90
12370;DHT22;6249;52.128;9.986;2023-03-05T04:47:33;3.40;99.90
12370;DHT22;6249;52.128;9.986;2023-03-05T04:50:54;3.40;99.90
12370;DHT22;6249;52.128;9.986;2023-03-05T04:54:17;3.40;99.90
12370;DHT22;6249;52.128;9.986;2023-03-05T04:57:40;3.40;99.90
12370;DHT22;6249;52.128;9.986;2023-03-05T05:01:05;3.30;99.90
12370;DHT22;6249;52.128;9.986;2023-03-05T05:04:28;3.40;99.90
12370;DHT22;6249;52.128;9.986;2023-03-05T05:07:52;3.30;99.90
12370;DHT22;6249;52.128;9.986;2023-03-05T05:11:15;3.40;99.90
12370;DHT22;6249;52.128;9.986;2023-03-05T05:14:36;3.40;99.90
12370;DHT22;6249;52.128;9.986;2023-03-05T05:17:57;3.40;99.90
12370;DHT22;6249;52.128;9.986;2023-03-05T05:21:19;3.40;99.90
12370;DHT22;6249;52.128;9.986;2023-03-05T05:24:40;3.40;99.90
12370;DHT22;6249;52.128;9.986;2023-03-05T05:28:01;3.30;99.90
12370;DHT22;6249;52.128;9.986;2023-03-05T05:31:21;3.30;99.90
12370;DHT22;6249;52.128;9.986;2023-03-05T05:34:42;3.30;99.90
12370;DHT22;6249;52.128;9.986;2023-03-05T05:38:02;3.30;99.90
12370;DHT22;6249;52.128;9.986;2023-03-05T05:41:25;3.30;99.90
12370;DHT22;6249;52.128;9.986;2023-03-05T05:44:46;3.40;99.90
12370;DHT22;6249;52.128;9.986;2023-03-05T05:48:09;3.40;99.90
12370;DHT22;6249;52.128;9.986;2023-03-05T05:51:32;3.40;99.90
12370;DHT22;6249;52.128;9.986;2023-03-05T05:54:53;3.30;99.90
12370;DHT22;6249;52.128;9.986;2023-03-05T05:58:13;3.40;99.90
12370;DHT22;6249;52.128;9.986;2023-03-05T06:01:34;3.40;99.90
12370;DHT22;6249;52.128;9.986;2023-03-05T06:04:55;3.40;99.90
12370;DHT22;6249;52.128;9.986;2023-03-05T06:08:17;3.40;99.90
12370;DHT22;6249;52.128;9.986;2023-03-05T06:11:40;3.40;99.90
12370;DHT22;6249;52.128;9.986;2023-03-05T06:15:05;3.40;99.90
12370;DHT22;6249;52.128;9.986;2023-03-05T06:18:28;3.30;99.90
12370;DHT22;6249;52.128;9.986;2023-03-05T06:21:51;3.40;99.90
12370;DHT22;6249;52.128;9.986;2023-03-05T06:25:12;3.30;99.90
12370;DHT22;6249;52.128;9.986;2023-03-05T06:28:33;3.40;99.90
12370;DHT22;6249;52.128;9.986;2023-03-05T06:31:54;3.50;99.90
12370;DHT22;6249;52.128;9.986;2023-03-05T06:35:15;3.50;99.90
12370;DHT22;6249;52.128;9.986;2023-03-05T06:38:40;3.60;99.90
12370;DHT22;6249;52.128;9.986;2023-03-05T06:42:01;3.50;99.90
12370;DHT22;6249;52.128;9.986;2023-03-05T06:45:24;3.50;99.90
12370;DHT22;6249;52.128;9.986;2023-03-05T06:48:47;3.50;99.90
12370;DHT22;6249;52.128;9.986;2023-03-05T06:52:10;3.40;99.90
12370;DHT22;6249;52.128;9.986;2023-03-05T06:55:35;3.60;99.90
12370;DHT22;6249;52.128;9.986;2023-03-05T06:58:58;3.60;99.90
12370;DHT22;6249;52.128;9.986;2023-03-05T07:02:19;3.60;99.90
12370;DHT22;6249;52.128;9.986;2023-03-05T07:05:40;3.60;99.90
12370;DHT22;6249;52.128;9.986;2023-03-05T07:09:03;3.60;99.90
12370;DHT22;6249;52.128;9.986;2023-03-05T07:12:24;3.50;99.90
12370;DHT22;6249;52.128;9.986;2023-03-05T07:15:45;3.50;99.90
12370;DHT22;6249;52.128;9.986;2023-03-05T07:19:09;3.50;99.90
12370;DHT22;6249;52.128;9.986;2023-03-05T07:22:30;3.50;99.90
12370;DHT22;6249;52.128;9.986;2023-03-05T07:25:53;3.50;99.90
12370;DHT22;6249;52.128;9.986;2023-03-05T07:29:16;3.50;99.90
12370;DHT22;6249;52.128;9.986;2023-03-05T07:32:39;3.60;99.90
12370;DHT22;6249;52.128;9.986;2023-03-05T07:36:06;3.70;99.90
12370;DHT22;6249;52.128;9.986;2023-03-05T07:39:26;3.70;99.90
12370;DHT22;6249;52.128;9.986;2023-03-05T07:42:49;3.70;99.90
12370;DHT22;6249;52.128;9.986;2023-03-05T07:46:17;3.80;99.90
12370;DHT22;6249;52.128;9.986;2023-03-05T07:49:40;3.80;99.90
12370;DHT22;6249;52.128;9.986;2023-03-05T07:53:01;3.80;99.90
12370;DHT22;6249;52.128;9.986;2023-03-05T07:56:25;3.70;99.90
12370;DHT22;6249;52.128;9.986;2023-03-05T07:59:51;3.80;99.90
12370;DHT22;6249;52.128;9.986;2023-03-05T08:03:11;3.80;99.90
12370;DHT22;6249;52.128;9.986;2023-03-05T08:06:32;3.80;99.90
12370;DHT22;6249;52.128;9.986;2023-03-05T08:09:52;3.80;99.90
12370;DHT22;6249;52.128;9.986;2023-03-05T08:13:13;4.00;99.90
12370;DHT22;6249;52.128;9.986;2023-03-05T08:16:34;4.00;99.90
12370;DHT22;6249;52.128;9.986;2023-03-05T08:19:54;4.00;99.90
12370;DHT22;6249;52.128;9.986;2023-03-05T08:23:19;3.90;99.90
12370;DHT22;6249;52.128;9.986;2023-03-05T08:26:42;3.90;99.90
12370;DHT22;6249;52.128;9.986;2023-03-05T08:30:06;4.00;99.90
12370;DHT22;6249;52.128;9.986;2023-03-05T08:33:29;4.10;99.90
12370;DHT22;6249;52.128;9.986;2023-03-05T08:36:50;4.30;99.90
12370;DHT22;6249;52.128;9.986;2023-03-05T08:40:11;4.50;99.90
12370;DHT22;6249;52.128;9.986;2023-03-05T08:43:31;4.40;99.90
12370;DHT22;6249;52.128;9.986;2023-03-05T08:46:52;4.40;99.90
12370;DHT22;6249;52.128;9.986;2023-03-05T08:50:13;4.30;99.90
12370;DHT22;6249;52.128;9.986;2023-03-05T08:53:36;4.30;99.90
12370;DHT22;6249;52.128;9.986;2023-03-05T08:56:56;4.30;99.90
12370;DHT22;6249;52.128;9.986;2023-03-05T09:00:17;4.30;99.90
12370;DHT22;6249;52.128;9.986;2023-03-05T09:03:39;4.40;99.90
12370;DHT22;6249;52.128;9.986;2023-03-05T09:07:00;4.50;99.90
12370;DHT22;6249;52.128;9.986;2023-03-05T09:10:20;4.40;99.90
12370;DHT22;6249;52.128;9.986;2023-03-05T09:13:43;4.40;99.90
12370;DHT22;6249;52.128;9.986;2023-03-05T09:17:04;4.50;99.90
12370;DHT22;6249;52.128;9.986;2023-03-05T09:20:25;4.70;99.90
12370;DHT22;6249;52.128;9.986;2023-03-05T09:23:46;4.80;99.90
12370;DHT22;6249;52.128;9.986;2023-03-05T09:27:08;4.80;99.90
12370;DHT22;6249;52.128;9.986;2023-03-05T09:30:29;4.80;99.90
12370;DHT22;6249;52.128;9.986;2023-03-05T09:33:50;4.80;99.90
12370;DHT22;6249;52.128;9.986;2023-03-05T09:37:10;4.90;99.90
12370;DHT22;6249;52.128;9.986;2023-03-05T09:40:45;4.90;99.90
12370;DHT22;6249;52.128;9.986;2023-03-05T09:44:19;4.90;99.90
12370;DHT22;6249;52.128;9.986;2023-03-05T09:51:23;5.00;99.90
12370;DHT22;6249;52.128;9.986;2023-03-05T09:54:51;5.00;99.90
12370;DHT22;6249;52.128;9.986;2023-03-05T09:58:13;5.10;99.90
12370;DHT22;6249;52.128;9.986;2023-03-05T10:01:39;5.10;99.90
12370;DHT22;6249;52.128;9.986;2023-03-05T10:12:52;5.10;99.90
12370;DHT22;6249;52.128;9.986;2023-03-05T10:34:52;5.30;99.90
12370;DHT22;6249;52.128;9.986;2023-03-05T10:38:20;5.40;99.90
12370;DHT22;6249;52.128;9.986;2023-03-05T10:42:01;5.40;99.90
12370;DHT22;6249;52.128;9.986;2023-03-05T10:45:32;5.40;99.90
12370;DHT22;6249;52.128;9.986;2023-03-05T10:49:00;5.40;99.90
12370;DHT22;6249;52.128;9.986;2023-03-05T10:52:39;5.40;99.90
12370;DHT22;6249;52.128;9.986;2023-03-05T10:56:05;5.30;99.90
12370;DHT22;6249;52.128;9.986;2023-03-05T10:59:27;5.40;99.90
12370;DHT22;6249;52.128;9.986;2023-03-05T11:03:08;5.40;99.90
12370;DHT22;6249;52.128;9.986;2023-03-05T11:06:39;6.20;99.90
12370;DHT22;6249;52.128;9.986;2023-03-05T11:13:27;7.50;99.90
12370;DHT22;6249;52.128;9.986;2023-03-05T11:16:52;8.30;99.90
12370;DHT22;6249;52.128;9.986;2023-03-05T11:23:41;7.80;99.90
12370;DHT22;6249;52.128;9.986;2023-03-05T11:27:43;7.30;99.90
12370;DHT22;6249;52.128;9.986;2023-03-05T11:34:39;6.50;99.90
12370;DHT22;6249;52.128;9.986;2023-03-05T11:38:02;6.40;99.90
12370;DHT22;6249;52.128;9.986;2023-03-05T11:41:28;6.20;99.90
12370;DHT22;6249;52.128;9.986;2023-03-05T11:44:54;6.20;99.90
12370;DHT22;6249;52.128;9.986;2023-03-05T11:52:02;6.00;99.90
12370;DHT22;6249;52.128;9.986;2023-03-05T11:55:31;6.00;99.90
12370;DHT22;6249;52.128;9.986;2023-03-05T11:59:06;6.00;99.90
12370;DHT22;6249;52.128;9.986;2023-03-05T12:02:33;6.00;99.90
12370;DHT22;6249;52.128;9.986;2023-03-05T12:05:58;6.20;99.90
12370;DHT22;6249;52.128;9.986;2023-03-05T12:09:39;6.20;99.90
12370;DHT22;6249;52.128;9.986;2023-03-05T12:13:11;6.10;99.90
12370;DHT22;6249;52.128;9.986;2023-03-05T12:16:44;6.20;99.90
12370;DHT22;6249;52.128;9.986;2023-03-05T12:20:09;5.80;99.90
12370;DHT22;6249;52.128;9.986;2023-03-05T12:23:55;5.90;99.90
12370;DHT22;6249;52.128;9.986;2023-03-05T12:27:32;5.90;99.90
12370;DHT22;6249;52.128;9.986;2023-03-05T12:30:57;6.20;99.90
12370;DHT22;6249;52.128;9.986;2023-03-05T12:34:46;6.30;99.90
12370;DHT22;6249;52.128;9.986;2023-03-05T12:38:28;6.70;99.90
12370;DHT22;6249;52.128;9.986;2023-03-05T12:41:54;7.20;99.90
12370;DHT22;6249;52.128;9.986;2023-03-05T12:48:44;7.70;99.90
12370;DHT22;6249;52.128;9.986;2023-03-05T12:52:16;7.40;99.90
12370;DHT22;6249;52.128;9.986;2023-03-05T12:59:07;6.80;99.90
12370;DHT22;6249;52.128;9.986;2023-03-05T13:02:35;6.60;99.90
12370;DHT22;6249;52.128;9.986;2023-03-05T13:05:57;6.60;99.90
12370;DHT22;6249;52.128;9.986;2023-03-05T13:09:25;7.10;99.90
12370;DHT22;6249;52.128;9.986;2023-03-05T13:12:53;7.80;99.90
12370;DHT22;6249;52.128;9.986;2023-03-05T13:16:28;7.80;99.90
12370;DHT22;6249;52.128;9.986;2023-03-05T13:19:54;7.60;99.90
12370;DHT22;6249;52.128;9.986;2023-03-05T13:23:20;7.40;99.90
12370;DHT22;6249;52.128;9.986;2023-03-05T13:26:41;7.60;99.90
12370;DHT22;6249;52.128;9.986;2023-03-05T13:30:19;7.50;99.90
12370;DHT22;6249;52.128;9.986;2023-03-05T13:33:49;7.10;99.90
12370;DHT22;6249;52.128;9.986;2023-03-05T13:37:17;7.10;99.90
12370;DHT22;6249;52.128;9.986;2023-03-05T13:40:41;7.40;99.90
12370;DHT22;6249;52.128;9.986;2023-03-05T13:44:01;7.50;99.90
12370;DHT22;6249;52.128;9.986;2023-03-05T13:47:27;7.60;99.90
12370;DHT22;6249;52.128;9.986;2023-03-05T13:50:56;7.60;99.60
12370;DHT22;6249;52.128;9.986;2023-03-05T13:54:21;7.80;99.30
12370;DHT22;6249;52.128;9.986;2023-03-05T13:57:50;8.10;98.80
12370;DHT22;6249;52.128;9.986;2023-03-05T14:01:41;8.70;97.50
12370;DHT22;6249;52.128;9.986;2023-03-05T14:05:03;9.90;95.20
12370;DHT22;6249;52.128;9.986;2023-03-05T14:08:24;9.60;94.30
12370;DHT22;6249;52.128;9.986;2023-03-05T14:16:25;8.20;96.70
12370;DHT22;6249;52.128;9.986;2023-03-05T14:19:48;7.70;97.70
12370;DHT22;6249;52.128;9.986;2023-03-05T14:26:59;7.30;98.70
12370;DHT22;6249;52.128;9.986;2023-03-05T14:30:23;7.20;99.10
12370;DHT22;6249;52.128;9.986;2023-03-05T14:33:47;6.90;99.90
12370;DHT22;6249;52.128;9.986;2023-03-05T14:37:36;7.10;99.60
12370;DHT22;6249;52.128;9.986;2023-03-05T14:40:57;7.30;99.20
12370;DHT22;6249;52.128;9.986;2023-03-05T14:44:20;7.40;98.70
12370;DHT22;6249;52.128;9.986;2023-03-05T14:47:48;7.90;98.40
12370;DHT22;6249;52.128;9.986;2023-03-05T14:51:09;7.50;98.10
12370;DHT22;6249;52.128;9.986;2023-03-05T14:54:33;7.40;98.00
12370;DHT22;6249;52.128;9.986;2023-03-05T14:58:00;7.30;97.70
12370;DHT22;6249;52.128;9.986;2023-03-05T15:01:23;7.30;98.50
12370;DHT22;6249;52.128;9.986;2023-03-05T15:04:44;7.40;99.00
12370;DHT22;6249;52.128;9.986;2023-03-05T15:08:16;7.30;99.20
12370;DHT22;6249;52.128;9.986;2023-03-05T15:11:37;7.20;99.70
12370;DHT22;6249;52.128;9.986;2023-03-05T15:14:58;7.30;99.10
12370;DHT22;6249;52.128;9.986;2023-03-05T15:18:21;7.30;99.50
12370;DHT22;6249;52.128;9.986;2023-03-05T15:21:41;7.40;99.50
12370;DHT22;6249;52.128;9.986;2023-03-05T15:25:03;7.50;99.40
12370;DHT22;6249;52.128;9.986;2023-03-05T15:28:24;7.60;99.00
12370;DHT22;6249;52.128;9.986;2023-03-05T15:31:45;7.70;98.80
12370;DHT22;6249;52.128;9.986;2023-03-05T15:35:05;7.70;99.30
12370;DHT22;6249;52.128;9.986;2023-03-05T15:38:28;7.60;99.60
12370;DHT22;6249;52.128;9.986;2023-03-05T15:41:49;7.70;99.00
12370;DHT22;6249;52.128;9.986;2023-03-05T15:45:12;7.60;99.00
12370;DHT22;6249;52.128;9.986;2023-03-05T15:48:33;7.20;99.30
12370;DHT22;6249;52.128;9.986;2023-03-05T15:51:56;7.00;99.40
12370;DHT22;6249;52.128;9.986;2023-03-05T15:55:20;6.70;99.90
12370;DHT22;6249;52.128;9.986;2023-03-05T15:58:46;6.80;99.90
12370;DHT22;6249;52.128;9.986;2023-03-05T16:02:07;6.70;99.90
12370;DHT22;6249;52.128;9.986;2023-03-05T16:05:32;6.70;99.90
12370;DHT22;6249;52.128;9.986;2023-03-05T16:09:03;6.60;99.90
12370;DHT22;6249;52.128;9.986;2023-03-05T16:12:27;6.50;99.90
12370;DHT22;6249;52.128;9.986;2023-03-05T16:15:56;6.40;99.90
12370;DHT22;6249;52.128;9.986;2023-03-05T16:19:17;6.40;99.90
12370;DHT22;6249;52.128;9.986;2023-03-05T16:22:39;6.40;99.90
12370;DHT22;6249;52.128;9.986;2023-03-05T16:26:02;6.40;99.90
12370;DHT22;6249;52.128;9.986;2023-03-05T16:29:22;6.40;99.90
12370;DHT22;6249;52.128;9.986;2023-03-05T16:32:43;6.30;99.90
12370;DHT22;6249;52.128;9.986;2023-03-05T16:36:26;6.30;99.90
12370;DHT22;6249;52.128;9.986;2023-03-05T16:39:48;6.10;99.90
12370;DHT22;6249;52.128;9.986;2023-03-05T16:43:08;6.10;99.90
12370;DHT22;6249;52.128;9.986;2023-03-05T16:46:31;6.20;99.90
12370;DHT22;6249;52.128;9.986;2023-03-05T16:49:54;6.20;99.90
12370;DHT22;6249;52.128;9.986;2023-03-05T16:53:14;6.10;99.90
12370;DHT22;6249;52.128;9.986;2023-03-05T16:56:37;6.10;99.90
12370;DHT22;6249;52.128;9.986;2023-03-05T17:00:00;6.00;99.90
12370;DHT22;6249;52.128;9.986;2023-03-05T17:03:23;5.90;99.90
12370;DHT22;6249;52.128;9.986;2023-03-05T17:06:45;6.00;99.90
12370;DHT22;6249;52.128;9.986;2023-03-05T17:10:09;5.90;99.90
12370;DHT22;6249;52.128;9.986;2023-03-05T17:13:30;6.00;99.90
12370;DHT22;6249;52.128;9.986;2023-03-05T17:16:53;5.90;99.90
12370;DHT22;6249;52.128;9.986;2023-03-05T17:20:13;5.80;99.90
12370;DHT22;6249;52.128;9.986;2023-03-05T17:23:35;5.80;99.90
12370;DHT22;6249;52.128;9.986;2023-03-05T17:26:56;5.80;99.90
12370;DHT22;6249;52.128;9.986;2023-03-05T17:30:16;5.90;99.90
12370;DHT22;6249;52.128;9.986;2023-03-05T17:33:37;5.80;99.90
12370;DHT22;6249;52.128;9.986;2023-03-05T17:36:57;5.70;99.90
12370;DHT22;6249;52.128;9.986;2023-03-05T17:40:18;5.80;99.90
12370;DHT22;6249;52.128;9.986;2023-03-05T17:43:48;5.80;99.90
12370;DHT22;6249;52.128;9.986;2023-03-05T17:47:15;5.80;99.90
12370;DHT22;6249;52.128;9.986;2023-03-05T17:50:35;5.80;99.90
12370;DHT22;6249;52.128;9.986;2023-03-05T17:53:56;5.80;99.90
12370;DHT22;6249;52.128;9.986;2023-03-05T17:57:20;5.70;99.90
12370;DHT22;6249;52.128;9.986;2023-03-05T18:00:41;5.70;99.90
12370;DHT22;6249;52.128;9.986;2023-03-05T18:04:02;5.70;99.90
12370;DHT22;6249;52.128;9.986;2023-03-05T18:07:26;5.70;99.90
12370;DHT22;6249;52.128;9.986;2023-03-05T18:10:46;5.70;99.90
12370;DHT22;6249;52.128;9.986;2023-03-05T18:14:14;5.70;99.90
12370;DHT22;6249;52.128;9.986;2023-03-05T18:17:35;5.70;99.90
12370;DHT22;6249;52.128;9.986;2023-03-05T18:20:56;5.70;99.90
12370;DHT22;6249;52.128;9.986;2023-03-05T18:24:16;5.60;99.90
12370;DHT22;6249;52.128;9.986;2023-03-05T18:27:37;5.80;99.90
12370;DHT22;6249;52.128;9.986;2023-03-05T18:30:58;5.70;99.90
12370;DHT22;6249;52.128;9.986;2023-03-05T18:34:18;5.60;99.90
12370;DHT22;6249;52.128;9.986;2023-03-05T18:37:40;5.70;99.90
12370;DHT22;6249;52.128;9.986;2023-03-05T18:41:17;5.60;99.90
12370;DHT22;6249;52.128;9.986;2023-03-05T18:44:41;5.60;99.90
12370;DHT22;6249;52.128;9.986;2023-03-05T18:48:01;5.60;99.90
12370;DHT22;6249;52.128;9.986;2023-03-05T18:51:28;5.60;99.90
12370;DHT22;6249;52.128;9.986;2023-03-05T18:54:52;5.50;99.90
12370;DHT22;6249;52.128;9.986;2023-03-05T18:58:13;5.50;99.90
12370;DHT22;6249;52.128;9.986;2023-03-05T19:01:35;5.50;99.90
12370;DHT22;6249;52.128;9.986;2023-03-05T19:04:56;5.40;99.90
12370;DHT22;6249;52.128;9.986;2023-03-05T19:08:19;5.60;99.90
12370;DHT22;6249;52.128;9.986;2023-03-05T19:11:39;5.60;99.90
12370;DHT22;6249;52.128;9.986;2023-03-05T19:15:03;5.60;99.90
12370;DHT22;6249;52.128;9.986;2023-03-05T19:18:26;5.50;99.90
12370;DHT22;6249;52.128;9.986;2023-03-05T19:21:55;5.60;99.90
12370;DHT22;6249;52.128;9.986;2023-03-05T19:25:18;5.50;99.90
12370;DHT22;6249;52.128;9.986;2023-03-05T19:28:41;5.70;99.90
12370;DHT22;6249;52.128;9.986;2023-03-05T19:32:06;5.40;99.90
12370;DHT22;6249;52.128;9.986;2023-03-05T19:35:27;5.40;99.90
12370;DHT22;6249;52.128;9.986;2023-03-05T19:38:48;5.30;99.90
12370;DHT22;6249;52.128;9.986;2023-03-05T19:42:10;5.20;99.90
12370;DHT22;6249;52.128;9.986;2023-03-05T19:45:32;5.20;99.90
12370;DHT22;6249;52.128;9.986;2023-03-05T19:48:52;5.20;99.90
12370;DHT22;6249;52.128;9.986;2023-03-05T19:52:18;5.10;99.90
12370;DHT22;6249;52.128;9.986;2023-03-05T19:55:43;5.20;99.90
12370;DHT22;6249;52.128;9.986;2023-03-05T19:59:03;5.20;99.90
12370;DHT22;6249;52.128;9.986;2023-03-05T20:02:24;5.10;99.90
12370;DHT22;6249;52.128;9.986;2023-03-05T20:05:47;5.00;99.90
12370;DHT22;6249;52.128;9.986;2023-03-05T20:09:12;4.90;99.90
12370;DHT22;6249;52.128;9.986;2023-03-05T20:12:33;5.60;99.90
12370;DHT22;6249;52.128;9.986;2023-03-05T20:15:56;5.00;99.90
12370;DHT22;6249;52.128;9.986;2023-03-05T20:19:17;5.00;99.90
12370;DHT22;6249;52.128;9.986;2023-03-05T20:22:43;5.00;99.90
12370;DHT22;6249;52.128;9.986;2023-03-05T20:26:06;5.10;99.90
12370;DHT22;6249;52.128;9.986;2023-03-05T20:29:29;5.00;99.90
12370;DHT22;6249;52.128;9.986;2023-03-05T20:32:49;5.00;99.90
12370;DHT22;6249;52.128;9.986;2023-03-05T20:36:10;4.90;99.90
12370;DHT22;6249;52.128;9.986;2023-03-05T20:39:31;5.90;99.90
12370;DHT22;6249;52.128;9.986;2023-03-05T20:42:55;4.80;99.90
12370;DHT22;6249;52.128;9.986;2023-03-05T20:46:45;4.60;99.90
12370;DHT22;6249;52.128;9.986;2023-03-05T20:50:19;4.70;99.90
12370;DHT22;6249;52.128;9.986;2023-03-05T20:53:43;4.60;99.90
12370;DHT22;6249;52.128;9.986;2023-03-05T20:57:04;4.60;99.90
12370;DHT22;6249;52.128;9.986;2023-03-05T21:00:25;4.50;99.90
12370;DHT22;6249;52.128;9.986;2023-03-05T21:03:46;4.50;99.90
12370;DHT22;6249;52.128;9.986;2023-03-05T21:07:06;4.40;99.90
12370;DHT22;6249;52.128;9.986;2023-03-05T21:10:31;4.50;99.90
12370;DHT22;6249;52.128;9.986;2023-03-05T21:13:52;4.50;99.90
12370;DHT22;6249;52.128;9.986;2023-03-05T21:17:12;4.40;99.90
12370;DHT22;6249;52.128;9.986;2023-03-05T21:20:33;4.40;99.90
12370;DHT22;6249;52.128;9.986;2023-03-05T21:23:54;4.50;99.90
12370;DHT22;6249;52.128;9.986;2023-03-05T21:27:17;4.40;99.90
12370;DHT22;6249;52.128;9.986;2023-03-05T21:30:42;4.40;99.90
12370;DHT22;6249;52.128;9.986;2023-03-05T21:34:06;4.30;99.90
12370;DHT22;6249;52.128;9.986;2023-03-05T21:37:26;4.40;99.90
12370;DHT22;6249;52.128;9.986;2023-03-05T21:40:50;4.30;99.90
12370;DHT22;6249;52.128;9.986;2023-03-05T21:44:11;4.30;99.90
12370;DHT22;6249;52.128;9.986;2023-03-05T21:47:36;4.20;99.90
12370;DHT22;6249;52.128;9.986;2023-03-05T21:50:59;4.30;99.90
12370;DHT22;6249;52.128;9.986;2023-03-05T21:54:27;4.20;99.90
12370;DHT22;6249;52.128;9.986;2023-03-05T21:57:48;4.20;99.90
12370;DHT22;6249;52.128;9.986;2023-03-05T22:01:12;4.30;99.90
12370;DHT22;6249;52.128;9.986;2023-03-05T22:04:36;4.10;99.90
12370;DHT22;6249;52.128;9.986;2023-03-05T22:07:56;4.00;99.90
12370;DHT22;6249;52.128;9.986;2023-03-05T22:11:17;4.10;99.90
12370;DHT22;6249;52.128;9.986;2023-03-05T22:14:38;4.00;99.90
12370;DHT22;6249;52.128;9.986;2023-03-05T22:17:59;3.90;99.90
12370;DHT22;6249;52.128;9.986;2023-03-05T22:21:23;4.10;99.90
12370;DHT22;6249;52.128;9.986;2023-03-05T22:24:45;3.90;99.90
12370;DHT22;6249;52.128;9.986;2023-03-05T22:28:06;3.90;99.90
12370;DHT22;6249;52.128;9.986;2023-03-05T22:31:28;3.90;99.90
12370;DHT22;6249;52.128;9.986;2023-03-05T22:34:54;3.90;99.90
12370;DHT22;6249;52.128;9.986;2023-03-05T22:38:15;3.70;99.90
12370;DHT22;6249;52.128;9.986;2023-03-05T22:41:36;3.60;99.90
12370;DHT22;6249;52.128;9.986;2023-03-05T22:44:59;3.70;99.90
12370;DHT22;6249;52.128;9.986;2023-03-05T22:48:20;3.70;99.90
12370;DHT22;6249;52.128;9.986;2023-03-05T22:51:40;3.60;99.90
12370;DHT22;6249;52.128;9.986;2023-03-05T22:55:01;3.50;99.90
12370;DHT22;6249;52.128;9.986;2023-03-05T22:58:26;3.60;99.90
12370;DHT22;6249;52.128;9.986;2023-03-05T23:01:49;3.80;99.90
12370;DHT22;6249;52.128;9.986;2023-03-05T23:05:10;3.80;99.90
12370;DHT22;6249;52.128;9.986;2023-03-05T23:08:35;3.60;99.90
12370;DHT22;6249;52.128;9.986;2023-03-05T23:11:56;3.60;99.90